Tropical Cyclones
[Index]
Main Index Home Page Stock Weather Photos Extreme Storms Discussion Storm News and Storm Chasing Reports Tropical Cyclones / Hurricanes / Typhoons Weather Data and Links Wild Fires / Bushfires Weather Observation Techniques Weather Picture Catalogue Tornado Pictures and Reports Stock Video Footage and DVDs for sale
Season 2005-2006 Tropical Cyclone WATI Track Map
Season 2005-2006 Summaries (Operational Data): [AU] [SIO] [SPAC] [SH]
<<- Previous TC | 2005-2006 Season | Next TC ->>

click for intensity scale information  Lat/long Grid: Show Hide

 Date Labels: Show Hide

Operational Tropical Cyclone Data : JTWC Advisories | BoM Warnings

Name: WATI
Number: 0618

17 Mar 2006 21:00 UTC to 28 Mar 2006 06:00 UTC

    date/time    lat    long     hPa   cat  kts
2006-03-17 21   14.9   174.0    1004         25          
2006-03-18 06   14.5   170.0    1005         25          
2006-03-18 18   14.3   166.6    1000         30          
2006-03-19 00   15.3   166.0     998         30          
2006-03-19 06   15.7   164.5     997         30          
2006-03-19 12   15.9   163.2     995    1    35          
2006-03-19 18   16.7   161.7     987    1    45          
2006-03-20 00   17.0   160.0     985    2    50          
2006-03-20 06   17.2   159.1     980    2    55          
2006-03-20 12   17.3   157.6     975    2    60          
2006-03-20 18   17.6   156.2     975    2    60          
2006-03-21 00   17.6   155.3     975    2    60          
2006-03-21 06   17.8   154.9     975    2    60          
2006-03-21 12   17.5   154.1     975    2    60          
2006-03-21 18   17.4   153.7     970    3    65          
2006-03-22 00   17.7   153.8     960    3    75          
2006-03-22 06   18.1   153.7     955    3    85          
2006-03-22 12   18.0   153.9     955    3    85          
2006-03-22 18   18.0   154.0     955    3    85          
2006-03-23 00   18.7   154.7     960    3    75          
2006-03-23 06   19.4   155.5     960    3    75          
2006-03-23 12   19.2   156.0     960    3    85          
2006-03-23 18   20.3   157.1     950    3    85          
2006-03-24 00   20.9   158.5     955    3    80          
2006-03-24 06   22.8   159.8     960    3    75          
2006-03-24 12   24.0   160.9     960    3    75          
2006-03-24 18   25.0   161.5     965    3    75          
2006-03-25 00   26.8   162.2     970    3    65          
2006-03-25 06   28.4   163.3     988    2    50          
2006-03-25 12   30.0   165.0     988    2    50          
2006-03-25 18   32.0   166.0     987    2    50          
2006-03-26 00   33.0   166.0     986    2    50          
2006-03-26 06   35.0   165.0     984    2    50          
2006-03-26 12   37.0   166.0     986    2    50          
2006-03-26 18   37.0   167.0     984    2    50          
2006-03-27 00   37.0   168.0     988    1    45          
2006-03-27 06   37.0   170.0     992    1    40          
2006-03-27 12   37.0   171.0     993    1    35          
2006-03-27 18   37.0   173.0     995    1    35          
2006-03-28 06   36.0   177.0    1001    1    35          
Winds are 10-min average.

Tropical cyclone tracks developed by Michael Bath using operational warnings and advisories and Google Maps.


[Australian Severe Weather index] [Copyright Notice] [Email Contacts] [Search This Site] [Privacy Policy]
Document: tropical_cyclone_wati.htm Updated: 28 May 2013